PROFILE

 METAR AND TAF INFORMATION
ADDS - METARS form results

(1017 UTC 18 May 2022)
http://aviationweather.gov/metar/data/
 
LJLJ 181000Z 15007KT 110V190 9999 FEW035 SCT047 19/09 Q1025 NOSIG
LJLJ 180930Z 15007KT 090V210 9999 FEW035 SCT047 19/09 Q1025 NOSIG
TAF LJLJ 180500Z 1806/1906 VRB02KT 9999 SCT035 BECMG 1810/1812 12010KT 

 AIRPORT MAP

 RUNWAY INFORMATION
Runway 13 Runway length 10827 ft Runway width 148 ft
Runway elevation 1273 ft Runway displaced threshold 0 ft Runway heading 126
Runway 31 Runway length 10827 ft Runway width 148 ft
Runway elevation 1191 ft Runway displaced threshold 0 ft Runway heading 306

 AIRPORT FREQUENCIES
Type A/D Name APP Frequency 135.275 MHZ
Type TWR Name TWR Frequency 118 MHZ
Type GND Name Frequency 121.625 MHZ
Type HANDLING & Name Frequency 131.4 MHZ
Type ATIS Name also on VO Frequency 128.175 MHZ

 AIRPORT NEAR NAVIGATION AIDS
Type VOR-DME Name Dolsko Frequency 112700 KHZ
Type NDB Name Dolsko Frequency 328 KHZ
Type NDB Name Ljubljana Frequency 296 KHZ